sensor_id;sensor_type;location;lat;lon;timestamp;pressure;altitude;pressure_sealevel;temperature;humidity
46942;BME280;32676;52.630;4.896;2023-04-09T00:01:41;102184.25;;;9.61;81.05
46942;BME280;32676;52.630;4.896;2023-04-09T00:04:07;102173.75;;;9.59;80.89
46942;BME280;32676;52.630;4.896;2023-04-09T00:06:34;102185.97;;;9.62;81.21
46942;BME280;32676;52.630;4.896;2023-04-09T00:09:00;102188.59;;;9.64;81.22
46942;BME280;32676;52.630;4.896;2023-04-09T00:11:27;102192.13;;;9.63;81.11
46942;BME280;32676;52.630;4.896;2023-04-09T00:13:53;102187.75;;;9.63;81.03
46942;BME280;32676;52.630;4.896;2023-04-09T00:16:20;102175.53;;;9.60;81.22
46942;BME280;32676;52.630;4.896;2023-04-09T00:18:47;102185.13;;;9.61;81.19
46942;BME280;32676;52.630;4.896;2023-04-09T00:21:14;102196.47;;;9.62;81.26
46942;BME280;32676;52.630;4.896;2023-04-09T00:23:41;102193.00;;;9.63;81.39
46942;BME280;32676;52.630;4.896;2023-04-09T00:26:07;102193.84;;;9.64;81.31
46942;BME280;32676;52.630;4.896;2023-04-09T00:28:34;102181.63;;;9.59;81.50
46942;BME280;32676;52.630;4.896;2023-04-09T00:31:01;102172.91;;;9.57;81.33
46942;BME280;32676;52.630;4.896;2023-04-09T00:33:28;102167.66;;;9.57;81.30
46942;BME280;32676;52.630;4.896;2023-04-09T00:35:55;102151.94;;;9.54;81.70
46942;BME280;32676;52.630;4.896;2023-04-09T00:38:22;102154.56;;;9.53;81.48
46942;BME280;32676;52.630;4.896;2023-04-09T00:40:48;102158.94;;;9.55;81.59
46942;BME280;32676;52.630;4.896;2023-04-09T00:43:15;102164.19;;;9.55;81.77
46942;BME280;32676;52.630;4.896;2023-04-09T00:45:41;102153.69;;;9.52;81.56
46942;BME280;32676;52.630;4.896;2023-04-09T00:48:08;102153.69;;;9.52;81.68
46942;BME280;32676;52.630;4.896;2023-04-09T00:50:35;102162.44;;;9.54;81.66
46942;BME280;32676;52.630;4.896;2023-04-09T00:53:03;102173.78;;;9.58;81.57
46942;BME280;32676;52.630;4.896;2023-04-09T00:55:30;102192.13;;;9.61;81.42
46942;BME280;32676;52.630;4.896;2023-04-09T00:57:56;102187.75;;;9.61;81.28
46942;BME280;32676;52.630;4.896;2023-04-09T01:00:23;102199.09;;;9.64;81.16
46942;BME280;32676;52.630;4.896;2023-04-09T01:02:49;102204.34;;;9.64;80.79
46942;BME280;32676;52.630;4.896;2023-04-09T01:05:17;102190.38;;;9.61;80.74
46942;BME280;32676;52.630;4.896;2023-04-09T01:07:48;102178.16;;;9.57;80.86
46942;BME280;32676;52.630;4.896;2023-04-09T01:10:21;102174.63;;;9.58;80.61
46942;BME280;32676;52.630;4.896;2023-04-09T01:12:53;102198.25;;;9.61;80.71
46942;BME280;32676;52.630;4.896;2023-04-09T01:15:21;102152.03;;;9.39;80.78
46942;BME280;32676;52.630;4.896;2023-04-09T01:17:51;102197.38;;;9.61;80.75
46942;BME280;32676;52.630;4.896;2023-04-09T01:20:20;102193.84;;;9.62;80.62
46942;BME280;32676;52.630;4.896;2023-04-09T01:22:49;102185.13;;;9.58;80.64
46942;BME280;32676;52.630;4.896;2023-04-09T01:25:30;102185.13;;;9.58;80.80
46942;BME280;32676;52.630;4.896;2023-04-09T01:30:47;102176.41;;;9.56;80.66
46942;BME280;32676;52.630;4.896;2023-04-09T01:33:14;102183.41;;;9.57;80.76
46942;BME280;32676;52.630;4.896;2023-04-09T01:35:41;102182.50;;;9.58;80.66
46942;BME280;32676;52.630;4.896;2023-04-09T01:38:09;102186.03;;;9.59;80.55
46942;BME280;32676;52.630;4.896;2023-04-09T01:40:36;102189.50;;;9.59;80.65
46942;BME280;32676;52.630;4.896;2023-04-09T01:43:02;102192.13;;;9.63;80.67
46942;BME280;32676;52.630;4.896;2023-04-09T01:45:30;102206.97;;;9.64;80.82
46942;BME280;32676;52.630;4.896;2023-04-09T01:47:59;102211.34;;;9.65;80.66
46942;BME280;32676;52.630;4.896;2023-04-09T01:50:26;102202.63;;;9.63;80.70
46942;BME280;32676;52.630;4.896;2023-04-09T01:52:53;102202.63;;;9.63;80.57
46942;BME280;32676;52.630;4.896;2023-04-09T01:55:19;102193.00;;;9.61;80.70
46942;BME280;32676;52.630;4.896;2023-04-09T01:57:45;102186.03;;;9.57;80.83
46942;BME280;32676;52.630;4.896;2023-04-09T02:00:12;102183.41;;;9.57;80.90
46942;BME280;32676;52.630;4.896;2023-04-09T02:02:44;102178.16;;;9.57;80.69
46942;BME280;32676;52.630;4.896;2023-04-09T02:05:14;102167.66;;;9.54;80.72
46942;BME280;32676;52.630;4.896;2023-04-09T02:07:42;102176.41;;;9.56;80.56
46942;BME280;32676;52.630;4.896;2023-04-09T02:10:09;102185.16;;;9.57;80.69
46942;BME280;32676;52.630;4.896;2023-04-09T02:12:39;102188.66;;;9.57;80.92
46942;BME280;32676;52.630;4.896;2023-04-09T02:15:07;102180.78;;;9.57;80.82
46942;BME280;32676;52.630;4.896;2023-04-09T02:17:34;102183.41;;;9.57;80.80
46942;BME280;32676;52.630;4.896;2023-04-09T02:20:00;102175.53;;;9.53;81.13
46942;BME280;32676;52.630;4.896;2023-04-09T02:22:28;102176.41;;;9.56;81.07
46942;BME280;32676;52.630;4.896;2023-04-09T02:24:59;102186.88;;;9.58;81.10
46942;BME280;32676;52.630;4.896;2023-04-09T02:27:25;102192.13;;;9.59;81.04
46942;BME280;32676;52.630;4.896;2023-04-09T02:29:51;102182.53;;;9.57;80.87
46942;BME280;32676;52.630;4.896;2023-04-09T02:32:18;102167.66;;;9.54;80.84
46942;BME280;32676;52.630;4.896;2023-04-09T02:34:44;102169.44;;;9.52;80.63
46942;BME280;32676;52.630;4.896;2023-04-09T02:37:11;102159.81;;;9.51;80.54
46942;BME280;32676;52.630;4.896;2023-04-09T02:39:38;102155.47;;;9.50;80.48
46942;BME280;32676;52.630;4.896;2023-04-09T02:42:05;102151.97;;;9.48;80.55
46942;BME280;32676;52.630;4.896;2023-04-09T02:44:32;102146.72;;;9.48;80.71
46942;BME280;32676;52.630;4.896;2023-04-09T02:46:59;102139.72;;;9.47;80.77
46942;BME280;32676;52.630;4.896;2023-04-09T02:49:25;102148.47;;;9.48;80.94
46942;BME280;32676;52.630;4.896;2023-04-09T02:51:51;102151.97;;;9.50;80.66
46942;BME280;32676;52.630;4.896;2023-04-09T02:54:18;102154.59;;;9.48;80.73
46942;BME280;32676;52.630;4.896;2023-04-09T02:56:45;102149.34;;;9.48;80.64
46942;BME280;32676;52.630;4.896;2023-04-09T02:59:12;102153.72;;;9.49;80.93
46942;BME280;32676;52.630;4.896;2023-04-09T03:01:38;102163.34;;;9.50;80.84
46942;BME280;32676;52.630;4.896;2023-04-09T03:04:05;102160.72;;;9.50;80.76
46942;BME280;32676;52.630;4.896;2023-04-09T03:06:31;102150.22;;;9.49;80.71
46942;BME280;32676;52.630;4.896;2023-04-09T03:08:58;102149.38;;;9.47;80.44
46942;BME280;32676;52.630;4.896;2023-04-09T03:11:24;102125.75;;;9.44;80.48
46942;BME280;32676;52.630;4.896;2023-04-09T03:13:52;102143.25;;;9.46;80.20
46942;BME280;32676;52.630;4.896;2023-04-09T03:16:19;102134.53;;;9.44;80.28
46942;BME280;32676;52.630;4.896;2023-04-09T03:18:45;102127.53;;;9.43;80.19
46942;BME280;32676;52.630;4.896;2023-04-09T03:21:12;102112.69;;;9.39;80.14
46942;BME280;32676;52.630;4.896;2023-04-09T03:23:38;102125.75;;;9.42;80.50
46942;BME280;32676;52.630;4.896;2023-04-09T03:26:05;102106.59;;;9.37;80.45
46942;BME280;32676;52.630;4.896;2023-04-09T03:28:31;102106.59;;;9.37;80.62
46942;BME280;32676;52.630;4.896;2023-04-09T03:30:59;102090.84;;;9.34;80.77
46942;BME280;32676;52.630;4.896;2023-04-09T03:33:25;102085.63;;;9.31;81.09
46942;BME280;32676;52.630;4.896;2023-04-09T03:35:52;102094.34;;;9.36;80.90
46942;BME280;32676;52.630;4.896;2023-04-09T03:38:18;102095.25;;;9.33;80.96
46942;BME280;32676;52.630;4.896;2023-04-09T03:40:45;102098.72;;;9.35;80.78
46942;BME280;32676;52.630;4.896;2023-04-09T03:43:11;102113.56;;;9.38;80.90
46942;BME280;32676;52.630;4.896;2023-04-09T03:45:38;102102.22;;;9.36;80.64
46942;BME280;32676;52.630;4.896;2023-04-09T03:48:06;102104.81;;;9.37;80.82
46942;BME280;32676;52.630;4.896;2023-04-09T03:50:36;102105.69;;;9.36;80.72
46942;BME280;32676;52.630;4.896;2023-04-09T03:53:04;102106.59;;;9.35;80.70
46942;BME280;32676;52.630;4.896;2023-04-09T03:55:30;102094.34;;;9.33;80.90
46942;BME280;32676;52.630;4.896;2023-04-09T03:57:57;102096.97;;;9.34;81.00
46942;BME280;32676;52.630;4.896;2023-04-09T04:00:23;102118.81;;;9.38;81.21
46942;BME280;32676;52.630;4.896;2023-04-09T04:02:50;102122.28;;;9.38;81.20
46942;BME280;32676;52.630;4.896;2023-04-09T04:05:18;102117.06;;;9.37;81.13
46942;BME280;32676;52.630;4.896;2023-04-09T04:07:44;102117.94;;;9.39;81.10
46942;BME280;32676;52.630;4.896;2023-04-09T04:10:11;102124.91;;;9.40;80.98
46942;BME280;32676;52.630;4.896;2023-04-09T04:12:37;102137.16;;;9.43;81.12
46942;BME280;32676;52.630;4.896;2023-04-09T04:15:04;102133.63;;;9.42;81.07
46942;BME280;32676;52.630;4.896;2023-04-09T04:17:30;102124.06;;;9.38;81.17
46942;BME280;32676;52.630;4.896;2023-04-09T04:19:57;102114.47;;;9.37;81.09
46942;BME280;32676;52.630;4.896;2023-04-09T04:22:24;102117.06;;;9.37;81.21
46942;BME280;32676;52.630;4.896;2023-04-09T04:24:51;102117.94;;;9.37;81.29
46942;BME280;32676;52.630;4.896;2023-04-09T04:27:17;102117.94;;;9.36;81.30
46942;BME280;32676;52.630;4.896;2023-04-09T04:29:43;102097.81;;;9.35;81.05
46942;BME280;32676;52.630;4.896;2023-04-09T04:32:10;102103.97;;;9.35;80.88
46942;BME280;32676;52.630;4.896;2023-04-09T04:34:37;102105.69;;;9.36;80.70
46942;BME280;32676;52.630;4.896;2023-04-09T04:37:06;102103.06;;;9.35;80.87
46942;BME280;32676;52.630;4.896;2023-04-09T04:39:33;102094.34;;;9.33;80.73
46942;BME280;32676;52.630;4.896;2023-04-09T04:42:00;102089.09;;;9.33;81.02
46942;BME280;32676;52.630;4.896;2023-04-09T04:44:26;102100.50;;;9.33;80.89
46942;BME280;32676;52.630;4.896;2023-04-09T04:46:52;102115.31;;;9.36;80.96
46942;BME280;32676;52.630;4.896;2023-04-09T04:49:19;102131.06;;;9.39;81.15
46942;BME280;32676;52.630;4.896;2023-04-09T04:51:45;102137.16;;;9.41;81.32
46942;BME280;32676;52.630;4.896;2023-04-09T04:54:13;102149.38;;;9.44;81.24
46942;BME280;32676;52.630;4.896;2023-04-09T04:56:41;102152.00;;;9.45;81.21
46942;BME280;32676;52.630;4.896;2023-04-09T04:59:07;102163.34;;;9.47;81.15
46942;BME280;32676;52.630;4.896;2023-04-09T05:01:34;102159.84;;;9.48;81.28
46942;BME280;32676;52.630;4.896;2023-04-09T05:04:00;102167.72;;;9.48;81.10
46942;BME280;32676;52.630;4.896;2023-04-09T05:06:27;102162.47;;;9.48;81.22
46942;BME280;32676;52.630;4.896;2023-04-09T05:08:53;102164.19;;;9.48;81.24
46942;BME280;32676;52.630;4.896;2023-04-09T05:11:22;102157.25;;;9.45;81.15
46942;BME280;32676;52.630;4.896;2023-04-09T05:13:50;102141.50;;;9.42;81.23
46942;BME280;32676;52.630;4.896;2023-04-09T05:16:16;102143.25;;;9.43;80.92
46942;BME280;32676;52.630;4.896;2023-04-09T05:18:43;102138.94;;;9.39;80.74
46942;BME280;32676;52.630;4.896;2023-04-09T05:21:09;102147.66;;;9.43;80.67
46942;BME280;32676;52.630;4.896;2023-04-09T05:23:36;102152.00;;;9.45;80.50
46942;BME280;32676;52.630;4.896;2023-04-09T05:26:02;102154.63;;;9.45;80.74
46942;BME280;32676;52.630;4.896;2023-04-09T05:28:28;102172.97;;;9.48;80.60
46942;BME280;32676;52.630;4.896;2023-04-09T05:30:56;102167.72;;;9.48;80.25
46942;BME280;32676;52.630;4.896;2023-04-09T05:33:23;102176.44;;;9.50;80.32
46942;BME280;32676;52.630;4.896;2023-04-09T05:35:49;102173.84;;;9.50;80.26
46942;BME280;32676;52.630;4.896;2023-04-09T05:38:15;102175.59;;;9.50;80.34
46942;BME280;32676;52.630;4.896;2023-04-09T05:40:42;102172.06;;;9.49;80.03
46942;BME280;32676;52.630;4.896;2023-04-09T05:43:09;102177.31;;;9.49;80.21
46942;BME280;32676;52.630;4.896;2023-04-09T05:45:36;102174.69;;;9.49;79.99
46942;BME280;32676;52.630;4.896;2023-04-09T05:48:05;102196.53;;;9.53;80.00
46942;BME280;32676;52.630;4.896;2023-04-09T05:50:32;102192.19;;;9.53;79.66
46942;BME280;32676;52.630;4.896;2023-04-09T05:52:58;102196.53;;;9.54;79.69
46942;BME280;32676;52.630;4.896;2023-04-09T05:55:25;102194.81;;;9.53;79.79
46942;BME280;32676;52.630;4.896;2023-04-09T05:57:51;102190.44;;;9.54;79.63
46942;BME280;32676;52.630;4.896;2023-04-09T06:00:18;102206.16;;;9.55;79.67
46942;BME280;32676;52.630;4.896;2023-04-09T06:02:45;102204.41;;;9.57;79.70
46942;BME280;32676;52.630;4.896;2023-04-09T06:05:14;102215.75;;;9.59;79.82
46942;BME280;32676;52.630;4.896;2023-04-09T06:07:40;102223.63;;;9.59;79.73
46942;BME280;32676;52.630;4.896;2023-04-09T06:10:07;102216.63;;;9.58;79.73
46942;BME280;32676;52.630;4.896;2023-04-09T06:12:34;102225.38;;;9.60;79.72
46942;BME280;32676;52.630;4.896;2023-04-09T06:15:00;102237.59;;;9.63;79.75
46942;BME280;32676;52.630;4.896;2023-04-09T06:17:27;102224.50;;;9.61;79.83
46942;BME280;32676;52.630;4.896;2023-04-09T06:19:53;102230.63;;;9.60;79.85
46942;BME280;32676;52.630;4.896;2023-04-09T06:22:21;102233.22;;;9.62;79.88
46942;BME280;32676;52.630;4.896;2023-04-09T06:24:48;102246.34;;;9.64;79.79
46942;BME280;32676;52.630;4.896;2023-04-09T06:27:14;102235.00;;;9.61;79.90
46942;BME280;32676;52.630;4.896;2023-04-09T06:29:43;102240.22;;;9.63;80.03
46942;BME280;32676;52.630;4.896;2023-04-09T06:32:09;102232.38;;;9.61;80.15
46942;BME280;32676;52.630;4.896;2023-04-09T06:34:36;102240.22;;;9.63;79.76
46942;BME280;32676;52.630;4.896;2023-04-09T06:37:02;102239.38;;;9.63;79.86
46942;BME280;32676;52.630;4.896;2023-04-09T06:39:30;102245.47;;;9.65;79.48
46942;BME280;32676;52.630;4.896;2023-04-09T06:41:57;102242.84;;;9.65;79.58
46942;BME280;32676;52.630;4.896;2023-04-09T06:44:23;102248.09;;;9.65;79.23
46942;BME280;32676;52.630;4.896;2023-04-09T06:46:50;102248.09;;;9.65;79.23
46942;BME280;32676;52.630;4.896;2023-04-09T06:49:17;102268.19;;;9.69;79.07
46942;BME280;32676;52.630;4.896;2023-04-09T06:51:44;102277.78;;;9.73;79.01
46942;BME280;32676;52.630;4.896;2023-04-09T06:54:10;102293.53;;;9.76;78.66
46942;BME280;32676;52.630;4.896;2023-04-09T06:56:38;102289.19;;;9.73;78.69
46942;BME280;32676;52.630;4.896;2023-04-09T06:59:05;102288.28;;;9.74;78.33
46942;BME280;32676;52.630;4.896;2023-04-09T07:01:32;102296.16;;;9.74;78.48
46942;BME280;32676;52.630;4.896;2023-04-09T07:03:59;102305.78;;;9.77;78.76
46942;BME280;32676;52.630;4.896;2023-04-09T07:06:26;102302.25;;;9.78;78.55
46942;BME280;32676;52.630;4.896;2023-04-09T07:08:52;102303.16;;;9.77;78.79
46942;BME280;32676;52.630;4.896;2023-04-09T07:11:18;102312.75;;;9.81;78.59
46942;BME280;32676;52.630;4.896;2023-04-09T07:13:46;102309.28;;;9.79;78.25
46942;BME280;32676;52.630;4.896;2023-04-09T07:16:13;102315.38;;;9.79;78.29
46942;BME280;32676;52.630;4.896;2023-04-09T07:18:39;102316.25;;;9.80;78.45
46942;BME280;32676;52.630;4.896;2023-04-09T07:21:06;102323.25;;;9.81;78.58
46942;BME280;32676;52.630;4.896;2023-04-09T07:23:32;102318.00;;;9.81;78.30
46942;BME280;32676;52.630;4.896;2023-04-09T07:26:00;102323.25;;;9.81;78.48
46942;BME280;32676;52.630;4.896;2023-04-09T07:28:27;102320.63;;;9.81;78.54
46942;BME280;32676;52.630;4.896;2023-04-09T07:30:55;102319.75;;;9.82;78.49
46942;BME280;32676;52.630;4.896;2023-04-09T07:33:21;102332.00;;;9.83;78.18
46942;BME280;32676;52.630;4.896;2023-04-09T07:35:48;102318.00;;;9.81;78.19
46942;BME280;32676;52.630;4.896;2023-04-09T07:38:14;102318.00;;;9.81;78.55
46942;BME280;32676;52.630;4.896;2023-04-09T07:40:41;102315.38;;;9.79;78.26
46942;BME280;32676;52.630;4.896;2023-04-09T07:43:07;102313.63;;;9.78;78.38
46942;BME280;32676;52.630;4.896;2023-04-09T07:45:34;102298.78;;;9.76;78.33
46942;BME280;32676;52.630;4.896;2023-04-09T07:48:02;102306.66;;;9.77;78.27
46942;BME280;32676;52.630;4.896;2023-04-09T07:50:28;102305.78;;;9.77;78.56
46942;BME280;32676;52.630;4.896;2023-04-09T07:52:54;102303.16;;;9.77;78.72
46942;BME280;32676;52.630;4.896;2023-04-09T07:55:21;102307.50;;;9.78;78.81
46942;BME280;32676;52.630;4.896;2023-04-09T07:57:47;102324.13;;;9.82;78.94
46942;BME280;32676;52.630;4.896;2023-04-09T08:00:16;102340.75;;;9.84;79.10
46942;BME280;32676;52.630;4.896;2023-04-09T08:02:42;102353.84;;;9.87;79.20
46942;BME280;32676;52.630;4.896;2023-04-09T08:05:13;102353.84;;;9.88;79.01
46942;BME280;32676;52.630;4.896;2023-04-09T08:07:39;102350.38;;;9.88;79.00
46942;BME280;32676;52.630;4.896;2023-04-09T08:10:06;102362.59;;;9.89;78.94
46942;BME280;32676;52.630;4.896;2023-04-09T08:12:39;102353.00;;;9.88;78.74
46942;BME280;32676;52.630;4.896;2023-04-09T08:15:05;102358.22;;;9.89;78.39
46942;BME280;32676;52.630;4.896;2023-04-09T08:17:32;102376.59;;;9.92;78.59
46942;BME280;32676;52.630;4.896;2023-04-09T08:20:00;102398.44;;;9.97;78.60
46942;BME280;32676;52.630;4.896;2023-04-09T08:22:28;102393.19;;;9.97;78.81
46942;BME280;32676;52.630;4.896;2023-04-09T08:24:55;102393.19;;;9.97;78.58
46942;BME280;32676;52.630;4.896;2023-04-09T08:27:22;102407.19;;;9.99;78.58
46942;BME280;32676;52.630;4.896;2023-04-09T08:29:48;102401.06;;;9.99;78.32
46942;BME280;32676;52.630;4.896;2023-04-09T08:32:16;102405.44;;;9.98;78.06
46942;BME280;32676;52.630;4.896;2023-04-09T08:34:42;102403.72;;;9.97;77.92
46942;BME280;32676;52.630;4.896;2023-04-09T08:37:09;102404.56;;;9.99;78.26
46942;BME280;32676;52.630;4.896;2023-04-09T08:39:36;102401.94;;;9.99;78.34
46942;BME280;32676;52.630;4.896;2023-04-09T08:42:03;102407.19;;;9.99;78.36
46942;BME280;32676;52.630;4.896;2023-04-09T08:44:31;102416.78;;;10.02;78.13
46942;BME280;32676;52.630;4.896;2023-04-09T08:46:58;102428.16;;;10.06;78.12
46942;BME280;32676;52.630;4.896;2023-04-09T08:49:24;102443.91;;;10.09;77.75
46942;BME280;32676;52.630;4.896;2023-04-09T08:51:51;102458.78;;;10.11;77.54
46942;BME280;32676;52.630;4.896;2023-04-09T08:54:17;102472.78;;;10.15;77.51
46942;BME280;32676;52.630;4.896;2023-04-09T08:56:45;102475.41;;;10.16;77.42
46942;BME280;32676;52.630;4.896;2023-04-09T08:59:14;102484.13;;;10.18;76.87
46942;BME280;32676;52.630;4.896;2023-04-09T09:01:43;102487.66;;;10.19;76.62
46942;BME280;32676;52.630;4.896;2023-04-09T09:04:10;102496.41;;;10.21;76.39
46942;BME280;32676;52.630;4.896;2023-04-09T09:06:37;102507.78;;;10.25;76.33
46942;BME280;32676;52.630;4.896;2023-04-09T09:09:04;102513.03;;;10.26;76.42
46942;BME280;32676;52.630;4.896;2023-04-09T09:11:31;102521.78;;;10.27;76.39
46942;BME280;32676;52.630;4.896;2023-04-09T09:14:00;102520.03;;;10.27;76.19
46942;BME280;32676;52.630;4.896;2023-04-09T09:16:27;102513.91;;;10.25;75.98
46942;BME280;32676;52.630;4.896;2023-04-09T09:18:54;102531.41;;;10.29;76.18
46942;BME280;32676;52.630;4.896;2023-04-09T09:21:21;102538.41;;;10.30;76.00
46942;BME280;32676;52.630;4.896;2023-04-09T09:23:48;102551.56;;;10.33;75.75
46942;BME280;32676;52.630;4.896;2023-04-09T09:26:16;102557.69;;;10.35;75.82
46942;BME280;32676;52.630;4.896;2023-04-09T09:28:43;102560.31;;;10.35;75.86
46942;BME280;32676;52.630;4.896;2023-04-09T09:31:12;102568.22;;;10.37;75.62
46942;BME280;32676;52.630;4.896;2023-04-09T09:33:39;102574.34;;;10.39;75.52
46942;BME280;32676;52.630;4.896;2023-04-09T09:36:06;102573.44;;;10.38;75.35
46942;BME280;32676;52.630;4.896;2023-04-09T09:38:33;102566.44;;;10.37;75.19
46942;BME280;32676;52.630;4.896;2023-04-09T09:41:01;102569.94;;;10.40;75.17
46942;BME280;32676;52.630;4.896;2023-04-09T09:43:41;102574.34;;;10.39;75.33
46942;BME280;32676;52.630;4.896;2023-04-09T09:46:08;102583.94;;;10.42;75.21
46942;BME280;32676;52.630;4.896;2023-04-09T09:51:09;102587.44;;;10.44;75.09
46942;BME280;32676;52.630;4.896;2023-04-09T09:53:40;102597.94;;;10.47;74.78
46942;BME280;32676;52.630;4.896;2023-04-09T09:56:11;102613.72;;;10.50;74.96
46942;BME280;32676;52.630;4.896;2023-04-09T09:58:39;102615.44;;;10.51;74.99
46942;BME280;32676;52.630;4.896;2023-04-09T10:01:07;102620.72;;;10.51;74.62
46942;BME280;32676;52.630;4.896;2023-04-09T10:03:35;102624.19;;;10.53;74.62
46942;BME280;32676;52.630;4.896;2023-04-09T10:06:03;102633.84;;;10.55;74.34
46942;BME280;32676;52.630;4.896;2023-04-09T10:08:32;102665.38;;;10.60;74.41
46942;BME280;32676;52.630;4.896;2023-04-09T10:11:00;102686.41;;;10.66;74.26
46942;BME280;32676;52.630;4.896;2023-04-09T10:13:28;102709.16;;;10.72;74.24
46942;BME280;32676;52.630;4.896;2023-04-09T10:15:56;102752.09;;;10.82;74.13
46942;BME280;32676;52.630;4.896;2023-04-09T10:18:23;102785.38;;;10.89;74.22
46942;BME280;32676;52.630;4.896;2023-04-09T10:20:52;102864.25;;;11.07;73.74
46942;BME280;32676;52.630;4.896;2023-04-09T10:23:20;102908.09;;;11.18;73.22
46942;BME280;32676;52.630;4.896;2023-04-09T10:25:50;102959.84;;;11.31;72.24
46942;BME280;32676;52.630;4.896;2023-04-09T10:28:18;102992.31;;;11.38;71.62
46942;BME280;32676;52.630;4.896;2023-04-09T10:30:44;103024.75;;;11.47;71.32
46942;BME280;32676;52.630;4.896;2023-04-09T10:33:12;103043.19;;;11.50;71.30
46942;BME280;32676;52.630;4.896;2023-04-09T10:35:38;103078.28;;;11.59;70.87
46942;BME280;32676;52.630;4.896;2023-04-09T10:38:06;103120.44;;;11.68;71.16
46942;BME280;32676;52.630;4.896;2023-04-09T10:40:32;103157.31;;;11.80;70.66
46942;BME280;32676;52.630;4.896;2023-04-09T10:43:00;103191.56;;;11.86;70.54
46942;BME280;32676;52.630;4.896;2023-04-09T10:45:37;103211.78;;;11.90;70.21
46942;BME280;32676;52.630;4.896;2023-04-09T10:48:04;103249.53;;;11.99;70.08
46942;BME280;32676;52.630;4.896;2023-04-09T10:50:31;103267.16;;;12.04;70.02
46942;BME280;32676;52.630;4.896;2023-04-09T10:53:00;103294.38;;;12.11;69.42
46942;BME280;32676;52.630;4.896;2023-04-09T10:55:35;103322.50;;;12.18;69.02
46942;BME280;32676;52.630;4.896;2023-04-09T10:58:03;103387.56;;;12.32;68.99
46942;BME280;32676;52.630;4.896;2023-04-09T11:00:30;103435.91;;;12.44;68.78
46942;BME280;32676;52.630;4.896;2023-04-09T11:03:05;103482.50;;;12.55;68.42
46942;BME280;32676;52.630;4.896;2023-04-09T11:05:36;103528.28;;;12.64;67.72
46942;BME280;32676;52.630;4.896;2023-04-09T11:08:03;103577.56;;;12.78;67.38
46942;BME280;32676;52.630;4.896;2023-04-09T11:10:30;103613.66;;;12.86;67.30
46942;BME280;32676;52.630;4.896;2023-04-09T11:12:56;103647.97;;;12.94;67.04
46942;BME280;32676;52.630;4.896;2023-04-09T11:15:24;103706.97;;;13.07;66.82
46942;BME280;32676;52.630;4.896;2023-04-09T11:17:50;103760.69;;;13.20;67.52
46942;BME280;32676;52.630;4.896;2023-04-09T11:20:18;103837.38;;;13.37;67.78
46942;BME280;32676;52.630;4.896;2023-04-09T11:22:45;103862.97;;;13.42;67.13
46942;BME280;32676;52.630;4.896;2023-04-09T11:25:16;103870.88;;;13.46;66.35
46942;BME280;32676;52.630;4.896;2023-04-09T11:27:43;103859.44;;;13.43;65.48
46942;BME280;32676;52.630;4.896;2023-04-09T11:30:10;103899.97;;;13.53;65.17
46942;BME280;32676;52.630;4.896;2023-04-09T11:32:39;103909.69;;;13.56;65.33
46942;BME280;32676;52.630;4.896;2023-04-09T11:35:09;103903.53;;;13.54;65.41
46942;BME280;32676;52.630;4.896;2023-04-09T11:37:37;103876.19;;;13.49;65.65
46942;BME280;32676;52.630;4.896;2023-04-09T11:40:03;103862.97;;;13.47;65.00
46942;BME280;32676;52.630;4.896;2023-04-09T11:42:30;103858.53;;;13.46;65.44
46942;BME280;32676;52.630;4.896;2023-04-09T11:44:56;103843.56;;;13.43;65.38
46942;BME280;32676;52.630;4.896;2023-04-09T11:47:23;103855.94;;;13.44;65.25
46942;BME280;32676;52.630;4.896;2023-04-09T11:49:50;103825.94;;;13.38;65.39
46942;BME280;32676;52.630;4.896;2023-04-09T11:52:17;103816.28;;;13.35;65.80
46942;BME280;32676;52.630;4.896;2023-04-09T11:54:46;103786.28;;;13.30;65.62
46942;BME280;32676;52.630;4.896;2023-04-09T11:57:13;103796.00;;;13.34;65.74
46942;BME280;32676;52.630;4.896;2023-04-09T11:59:39;103819.81;;;13.39;65.52
46942;BME280;32676;52.630;4.896;2023-04-09T12:02:06;103825.06;;;13.40;65.26
46942;BME280;32676;52.630;4.896;2023-04-09T12:04:32;103836.56;;;13.42;65.56
46942;BME280;32676;52.630;4.896;2023-04-09T12:07:00;103884.13;;;13.55;65.66
46942;BME280;32676;52.630;4.896;2023-04-09T12:09:26;103869.16;;;13.52;65.24
46942;BME280;32676;52.630;4.896;2023-04-09T12:11:52;103858.59;;;13.51;65.00
46942;BME280;32676;52.630;4.896;2023-04-09T12:14:20;103863.88;;;13.51;64.72
46942;BME280;32676;52.630;4.896;2023-04-09T12:16:49;103837.44;;;13.44;64.95
46942;BME280;32676;52.630;4.896;2023-04-09T12:19:16;103847.13;;;13.49;64.93
46942;BME280;32676;52.630;4.896;2023-04-09T12:21:44;103870.03;;;13.53;65.13
46942;BME280;32676;52.630;4.896;2023-04-09T12:24:12;103924.72;;;13.66;65.53
46942;BME280;32676;52.630;4.896;2023-04-09T12:26:38;103960.84;;;13.73;65.55
46942;BME280;32676;52.630;4.896;2023-04-09T12:29:04;103969.66;;;13.77;65.28
46942;BME280;32676;52.630;4.896;2023-04-09T12:31:31;103998.81;;;13.85;65.43
46942;BME280;32676;52.630;4.896;2023-04-09T12:33:57;104030.56;;;13.91;65.06
46942;BME280;32676;52.630;4.896;2023-04-09T12:36:23;104019.09;;;13.89;65.09
46942;BME280;32676;52.630;4.896;2023-04-09T12:38:50;104001.47;;;13.86;64.20
46942;BME280;32676;52.630;4.896;2023-04-09T12:41:18;104021.75;;;13.92;64.31
46942;BME280;32676;52.630;4.896;2023-04-09T12:43:44;104070.28;;;14.03;64.32
46942;BME280;32676;52.630;4.896;2023-04-09T12:46:12;104094.09;;;14.06;64.16
46942;BME280;32676;52.630;4.896;2023-04-09T12:48:38;104085.25;;;14.06;63.82
46942;BME280;32676;52.630;4.896;2023-04-09T12:51:05;104092.34;;;14.08;63.55
46942;BME280;32676;52.630;4.896;2023-04-09T12:53:31;104094.09;;;14.09;63.88
46942;BME280;32676;52.630;4.896;2023-04-09T12:55:57;104145.28;;;14.20;63.65
46942;BME280;32676;52.630;4.896;2023-04-09T12:58:26;104174.47;;;14.30;63.48
46942;BME280;32676;52.630;4.896;2023-04-09T13:00:53;104211.56;;;14.39;63.49
46942;BME280;32676;52.630;4.896;2023-04-09T13:03:20;104233.63;;;14.44;62.99